createdAt,value
2022-12-04T00:01:06.155Z,15.50
2022-12-04T00:03:32.921Z,12.60
2022-12-04T00:06:17.586Z,15.70
2022-12-04T00:08:44.645Z,15.40
2022-12-04T00:11:12.428Z,13.50
2022-12-04T00:13:39.141Z,13.50
2022-12-04T00:16:07.993Z,13.40
2022-12-04T00:18:34.976Z,13.00
2022-12-04T00:21:05.925Z,10.90
2022-12-04T00:23:33.136Z,13.70
2022-12-04T00:26:07.872Z,15.80
2022-12-04T00:28:34.410Z,16.00
2022-12-04T00:31:14.419Z,14.40
2022-12-04T00:33:40.877Z,15.40
2022-12-04T00:36:10.341Z,13.30
2022-12-04T00:38:36.859Z,12.70
2022-12-04T00:41:03.541Z,15.90
2022-12-04T00:43:30.393Z,15.00
2022-12-04T00:45:56.871Z,13.30
2022-12-04T00:48:23.406Z,13.40
2022-12-04T00:50:49.841Z,12.30
2022-12-04T00:53:16.344Z,11.80
2022-12-04T00:55:43.796Z,8.40
2022-12-04T00:58:10.544Z,11.80
2022-12-04T01:00:38.942Z,14.50
2022-12-04T01:03:05.912Z,11.70
2022-12-04T01:05:32.595Z,12.10
2022-12-04T01:07:59.100Z,12.10
2022-12-04T01:10:25.585Z,12.90
2022-12-04T01:12:54.907Z,11.30
2022-12-04T01:15:21.326Z,11.20
2022-12-04T01:17:47.883Z,9.60
2022-12-04T01:20:14.598Z,11.00
2022-12-04T01:22:41.079Z,11.20
2022-12-04T01:25:08.462Z,10.10
2022-12-04T01:27:34.813Z,13.00
2022-12-04T01:30:01.153Z,12.10
2022-12-04T01:32:28.098Z,13.10
2022-12-04T01:34:54.417Z,10.40
2022-12-04T01:37:20.847Z,12.80
2022-12-04T01:39:47.292Z,12.40
2022-12-04T01:42:15.065Z,12.00
2022-12-04T01:44:44.272Z,10.60
2022-12-04T01:47:10.903Z,12.10
2022-12-04T01:49:45.693Z,11.00
2022-12-04T01:52:19.211Z,12.00
2022-12-04T01:54:49.388Z,9.90
2022-12-04T01:57:18.200Z,11.20
2022-12-04T01:59:54.645Z,9.30
2022-12-04T02:02:39.929Z,10.80
2022-12-04T02:05:10.976Z,11.00
2022-12-04T02:07:37.522Z,9.50
2022-12-04T02:10:06.145Z,8.20
2022-12-04T02:13:02.417Z,9.80
2022-12-04T02:15:38.192Z,11.00
2022-12-04T02:18:25.078Z,9.60
2022-12-04T02:21:19.088Z,9.20
2022-12-04T02:24:02.812Z,10.20
2022-12-04T02:26:51.316Z,7.50
2022-12-04T02:29:52.242Z,10.40
2022-12-04T02:32:22.800Z,7.60
2022-12-04T02:34:58.477Z,9.80
2022-12-04T02:37:37.877Z,8.20
2022-12-04T02:40:13.258Z,11.50
2022-12-04T02:42:57.799Z,11.00
2022-12-04T02:45:28.421Z,10.90
2022-12-04T02:47:55.858Z,11.10
2022-12-04T02:50:22.567Z,9.90
2022-12-04T02:52:58.555Z,9.30
2022-12-04T02:56:02.641Z,8.10
2022-12-04T02:58:34.692Z,10.10
2022-12-04T03:01:02.755Z,8.40
2022-12-04T03:03:32.044Z,10.10
2022-12-04T03:06:05.457Z,9.80
2022-12-04T03:08:39.085Z,10.10
2022-12-04T03:11:05.890Z,9.00
2022-12-04T03:13:47.578Z,8.20
2022-12-04T03:16:19.181Z,10.50
2022-12-04T03:19:09.868Z,9.00
2022-12-04T03:21:39.697Z,10.10
2022-12-04T03:24:27.770Z,9.30
2022-12-04T03:27:10.363Z,7.80
2022-12-04T03:30:14.422Z,10.50
2022-12-04T03:32:47.188Z,10.00
2022-12-04T03:35:45.779Z,7.80
2022-12-04T03:38:22.530Z,9.20
2022-12-04T03:40:59.495Z,9.80
2022-12-04T03:43:29.047Z,8.70
2022-12-04T03:46:10.283Z,9.90
2022-12-04T03:49:23.831Z,8.10
2022-12-04T03:52:01.455Z,8.30
2022-12-04T03:54:33.783Z,10.40
2022-12-04T03:57:09.985Z,7.90
2022-12-04T03:59:51.141Z,10.20
2022-12-04T04:02:23.793Z,8.40
2022-12-04T04:04:52.530Z,7.80
2022-12-04T04:07:35.820Z,7.80
2022-12-04T04:10:12.188Z,7.10
2022-12-04T04:12:43.869Z,10.30
2022-12-04T04:15:33.224Z,9.10
2022-12-04T04:18:18.982Z,10.80
2022-12-04T04:21:09.825Z,8.90
2022-12-04T04:24:00.078Z,9.40
2022-12-04T04:26:27.296Z,10.10
2022-12-04T04:28:53.840Z,9.70
2022-12-04T04:32:12.113Z,9.90
2022-12-04T04:34:56.799Z,10.10
2022-12-04T04:37:52.751Z,10.20
2022-12-04T04:40:52.794Z,10.10
2022-12-04T04:43:30.111Z,7.60
2022-12-04T04:46:20.401Z,8.80
2022-12-04T04:48:50.150Z,7.00
2022-12-04T04:51:16.634Z,11.20
2022-12-04T04:53:46.887Z,9.40
2022-12-04T04:56:13.456Z,10.70
2022-12-04T04:58:41.190Z,8.10
2022-12-04T05:01:13.699Z,9.90
2022-12-04T05:03:40.811Z,8.90
2022-12-04T05:06:07.561Z,10.30
2022-12-04T05:08:34.240Z,8.30
2022-12-04T05:11:00.800Z,8.80
2022-12-04T05:13:28.522Z,7.60
2022-12-04T05:16:06.843Z,7.60
2022-12-04T05:18:34.000Z,9.00
2022-12-04T05:21:15.947Z,8.30
2022-12-04T05:23:42.390Z,8.50
2022-12-04T05:26:10.084Z,7.40
2022-12-04T05:28:37.311Z,8.50
2022-12-04T05:31:03.813Z,9.20
2022-12-04T05:33:30.329Z,9.30
2022-12-04T05:36:04.038Z,9.30
2022-12-04T05:38:30.948Z,7.30
2022-12-04T05:41:02.022Z,7.40
2022-12-04T05:43:28.459Z,8.60
2022-12-04T05:45:54.960Z,10.60
2022-12-04T05:48:21.427Z,10.00
2022-12-04T05:50:47.752Z,10.10
2022-12-04T05:53:14.134Z,8.90
2022-12-04T05:55:40.493Z,8.30
2022-12-04T05:58:06.909Z,9.30
2022-12-04T06:00:33.337Z,9.50
2022-12-04T06:02:59.837Z,8.20
2022-12-04T06:05:26.336Z,7.60
2022-12-04T06:07:52.849Z,8.50
2022-12-04T06:10:19.345Z,7.80
2022-12-04T06:12:45.691Z,7.30
2022-12-04T06:15:12.129Z,8.80
2022-12-04T06:17:38.565Z,8.20
2022-12-04T06:20:11.269Z,7.90
2022-12-04T06:22:38.457Z,10.80
2022-12-04T06:25:06.457Z,7.40
2022-12-04T06:27:32.897Z,7.90
2022-12-04T06:29:59.594Z,8.30
2022-12-04T06:32:26.186Z,8.90
2022-12-04T06:34:53.482Z,7.10
2022-12-04T06:37:22.649Z,8.80
2022-12-04T06:39:49.134Z,7.80
2022-12-04T06:42:15.644Z,6.90
2022-12-04T06:44:41.983Z,7.60
2022-12-04T06:47:08.503Z,6.80
2022-12-04T06:49:35.557Z,8.10
2022-12-04T06:52:01.996Z,9.40
2022-12-04T06:54:28.434Z,8.20
2022-12-04T06:56:55.127Z,7.10
2022-12-04T06:59:21.537Z,7.10
2022-12-04T07:01:47.868Z,6.70
2022-12-04T07:04:14.530Z,8.10
2022-12-04T07:06:41.405Z,7.20
2022-12-04T07:09:10.890Z,6.50
2022-12-04T07:11:38.945Z,7.40
2022-12-04T07:14:05.372Z,8.30
2022-12-04T07:16:38.425Z,7.20
2022-12-04T07:19:11.427Z,8.60
2022-12-04T07:21:40.352Z,8.70
2022-12-04T07:24:07.151Z,8.70
2022-12-04T07:26:33.655Z,7.60
2022-12-04T07:29:00.075Z,8.20
2022-12-04T07:31:27.845Z,9.00
2022-12-04T07:33:54.681Z,8.30
2022-12-04T07:36:21.903Z,8.90
2022-12-04T07:38:48.575Z,8.90
2022-12-04T07:41:15.053Z,8.70
2022-12-04T07:43:41.740Z,8.20
2022-12-04T07:46:14.299Z,9.30
2022-12-04T07:48:41.014Z,10.80
2022-12-04T07:51:11.199Z,10.20
2022-12-04T07:53:37.747Z,8.40
2022-12-04T07:56:05.269Z,9.30
2022-12-04T07:58:32.547Z,10.50
2022-12-04T08:01:09.318Z,10.30
2022-12-04T08:03:36.454Z,10.00
2022-12-04T08:06:04.071Z,8.70
2022-12-04T08:08:30.623Z,9.40
2022-12-04T08:10:57.226Z,11.20
2022-12-04T08:13:24.051Z,11.40
2022-12-04T08:15:50.741Z,9.10
2022-12-04T08:18:17.082Z,12.60
2022-12-04T08:20:43.869Z,10.90
2022-12-04T08:23:10.277Z,11.30
2022-12-04T08:25:40.417Z,10.70
2022-12-04T08:28:06.983Z,12.50
2022-12-04T08:30:34.878Z,12.10
2022-12-04T08:33:01.389Z,12.80
2022-12-04T08:35:27.959Z,10.80
2022-12-04T08:37:54.365Z,10.50
2022-12-04T08:40:20.798Z,10.50
2022-12-04T08:42:47.164Z,12.40
2022-12-04T08:45:14.095Z,10.30
2022-12-04T08:47:40.608Z,11.80
2022-12-04T08:50:07.442Z,11.70
2022-12-04T08:52:33.885Z,10.60
2022-12-04T08:55:00.259Z,11.10
2022-12-04T08:57:26.774Z,8.70
2022-12-04T08:59:53.551Z,10.10
2022-12-04T09:02:20.376Z,9.10
2022-12-04T09:04:46.822Z,11.40
2022-12-04T09:07:13.282Z,13.10
2022-12-04T09:09:44.952Z,10.80
2022-12-04T09:12:14.312Z,10.40
2022-12-04T09:14:40.657Z,11.20
2022-12-04T09:17:07.264Z,10.20
2022-12-04T09:19:34.783Z,12.60
2022-12-04T09:22:01.165Z,9.90
2022-12-04T09:24:30.042Z,11.80
2022-12-04T09:26:56.481Z,9.60
2022-12-04T09:29:23.085Z,11.20
2022-12-04T09:31:49.474Z,10.20
2022-12-04T09:34:15.963Z,11.20
2022-12-04T09:36:42.373Z,10.20
2022-12-04T09:39:09.055Z,11.10
2022-12-04T09:41:35.409Z,9.70
2022-12-04T09:44:04.015Z,10.30
2022-12-04T09:46:37.938Z,9.30
2022-12-04T09:49:10.230Z,9.50
2022-12-04T09:51:38.128Z,12.90
2022-12-04T09:54:18.026Z,9.40
2022-12-04T09:56:55.327Z,10.80
2022-12-04T09:59:25.196Z,9.70
2022-12-04T10:02:17.044Z,9.40
2022-12-04T10:04:43.723Z,9.90
2022-12-04T10:07:47.195Z,9.20
2022-12-04T10:10:35.435Z,9.30
2022-12-04T10:13:44.045Z,8.80
2022-12-04T10:16:51.361Z,9.30
2022-12-04T10:19:29.478Z,8.60
2022-12-04T10:22:29.954Z,8.50
2022-12-04T10:25:14.718Z,10.20
2022-12-04T10:27:50.684Z,6.80
2022-12-04T10:30:20.827Z,8.60
2022-12-04T10:32:49.124Z,9.10
2022-12-04T10:35:29.818Z,9.10
2022-12-04T10:38:01.444Z,7.70
2022-12-04T10:40:34.910Z,8.80
2022-12-04T10:43:12.646Z,10.70
2022-12-04T10:45:39.125Z,9.50
2022-12-04T10:48:07.551Z,9.10
2022-12-04T10:50:34.226Z,9.40
2022-12-04T10:53:00.646Z,9.40
2022-12-04T10:55:32.668Z,9.60
2022-12-04T10:57:59.409Z,9.60
2022-12-04T11:00:34.658Z,9.00
2022-12-04T11:03:08.362Z,12.30
2022-12-04T11:05:43.853Z,10.10
2022-12-04T11:08:23.216Z,12.40
2022-12-04T11:11:01.428Z,10.70
2022-12-04T11:13:28.177Z,9.20
2022-12-04T11:15:56.065Z,11.50
2022-12-04T11:18:27.740Z,10.30
2022-12-04T11:20:58.943Z,11.50
2022-12-04T11:23:26.600Z,10.50
2022-12-04T11:25:55.854Z,11.20
2022-12-04T11:28:45.566Z,9.70
2022-12-04T11:31:17.382Z,9.30
2022-12-04T11:34:08.178Z,10.70
2022-12-04T11:36:39.790Z,9.10
2022-12-04T11:39:13.365Z,11.30
2022-12-04T11:41:40.096Z,8.70
2022-12-04T11:44:07.764Z,10.40
2022-12-04T11:46:35.515Z,10.30
2022-12-04T11:49:03.405Z,9.80
2022-12-04T11:51:52.986Z,10.20
2022-12-04T11:54:40.951Z,10.30
2022-12-04T11:57:48.420Z,9.10
2022-12-04T12:00:22.129Z,9.90
2022-12-04T12:03:10.314Z,10.90
2022-12-04T12:05:54.820Z,10.40
2022-12-04T12:08:41.716Z,9.70
2022-12-04T12:11:33.439Z,10.40
2022-12-04T12:14:40.821Z,9.50
2022-12-04T12:17:42.181Z,8.60
2022-12-04T12:20:36.454Z,9.70
2022-12-04T12:23:18.563Z,11.70
2022-12-04T12:25:52.558Z,8.10
2022-12-04T12:28:59.416Z,9.90
2022-12-04T12:31:48.144Z,10.00
2022-12-04T12:34:25.034Z,10.00
2022-12-04T12:36:53.303Z,9.60
2022-12-04T12:39:31.486Z,9.10
2022-12-04T12:41:59.485Z,9.80
2022-12-04T12:44:49.496Z,11.80
2022-12-04T12:47:19.152Z,8.50
2022-12-04T12:50:54.741Z,10.50
2022-12-04T12:53:35.811Z,8.30
2022-12-04T12:56:05.484Z,9.60
2022-12-04T12:58:53.690Z,10.10
2022-12-04T13:01:23.788Z,8.50
2022-12-04T13:04:05.429Z,10.40
2022-12-04T13:06:38.702Z,12.10
2022-12-04T13:09:29.426Z,11.70
2022-12-04T13:12:02.734Z,11.00
2022-12-04T13:14:29.696Z,10.70
2022-12-04T13:17:02.894Z,8.30
2022-12-04T13:19:33.897Z,11.60
2022-12-04T13:22:29.934Z,10.70
2022-12-04T13:25:18.913Z,12.00
2022-12-04T13:28:03.949Z,9.90
2022-12-04T13:31:14.591Z,11.60
2022-12-04T13:34:14.015Z,11.70
2022-12-04T13:37:03.569Z,11.70
2022-12-04T13:40:08.864Z,9.80
2022-12-04T13:42:36.489Z,10.90
2022-12-04T13:45:09.908Z,10.50
2022-12-04T13:47:36.499Z,10.30
2022-12-04T13:50:19.607Z,10.80
2022-12-04T13:52:48.590Z,11.10
2022-12-04T13:55:36.768Z,11.60
2022-12-04T13:58:30.147Z,11.80
2022-12-04T14:01:12.396Z,11.80
2022-12-04T14:03:50.167Z,11.80
2022-12-04T14:06:25.857Z,11.00
2022-12-04T14:09:02.031Z,10.20
2022-12-04T14:11:28.927Z,10.40
2022-12-04T14:13:57.417Z,10.70
2022-12-04T14:16:26.553Z,11.40
2022-12-04T14:18:58.774Z,11.20
2022-12-04T14:21:25.668Z,11.10
2022-12-04T14:23:52.513Z,10.90
2022-12-04T14:26:37.257Z,9.60
2022-12-04T14:29:46.895Z,10.20
2022-12-04T14:32:21.680Z,11.20
2022-12-04T14:34:48.160Z,10.40
2022-12-04T14:37:25.034Z,12.10
2022-12-04T14:39:51.437Z,12.30
2022-12-04T14:42:37.114Z,10.60
2022-12-04T14:45:34.693Z,11.60
2022-12-04T14:48:17.588Z,11.90
2022-12-04T14:50:48.253Z,11.20
2022-12-04T14:53:49.005Z,9.10
2022-12-04T14:56:51.102Z,11.40
2022-12-04T14:59:20.531Z,11.30
2022-12-04T15:01:48.658Z,12.00
2022-12-04T15:04:27.435Z,12.30
2022-12-04T15:06:59.957Z,13.80
2022-12-04T15:09:45.915Z,14.00
2022-12-04T15:12:34.533Z,15.10
2022-12-04T15:15:16.897Z,14.70
2022-12-04T15:17:43.710Z,15.30
2022-12-04T15:20:16.088Z,13.40
2022-12-04T15:22:42.896Z,13.60
2022-12-04T15:25:43.238Z,15.50
2022-12-04T15:28:20.623Z,12.70
2022-12-04T15:30:47.326Z,13.40
2022-12-04T15:33:22.068Z,12.90
2022-12-04T15:36:24.194Z,13.70
2022-12-04T15:38:50.767Z,15.10
2022-12-04T15:41:36.563Z,13.90
2022-12-04T15:44:31.251Z,12.00
2022-12-04T15:47:01.562Z,11.30
2022-12-04T15:49:32.548Z,13.90
2022-12-04T15:52:10.510Z,12.80
2022-12-04T15:54:37.196Z,13.80
2022-12-04T15:57:12.723Z,12.20
2022-12-04T15:59:39.492Z,12.20
2022-12-04T16:02:22.148Z,10.00
2022-12-04T16:04:48.891Z,14.60
2022-12-04T16:07:26.411Z,13.50
2022-12-04T16:10:03.340Z,13.70
2022-12-04T16:12:32.899Z,14.40
2022-12-04T16:15:00.363Z,14.90
2022-12-04T16:17:34.106Z,14.10
2022-12-04T16:20:04.120Z,13.30
2022-12-04T16:22:31.047Z,12.90
2022-12-04T16:24:58.109Z,11.90
2022-12-04T16:27:25.260Z,14.00
2022-12-04T16:29:52.112Z,13.80
2022-12-04T16:32:21.934Z,14.70
2022-12-04T16:34:48.968Z,12.60
2022-12-04T16:37:18.792Z,13.70
2022-12-04T16:39:45.659Z,12.10
2022-12-04T16:42:25.189Z,12.50
2022-12-04T16:44:52.829Z,13.20
2022-12-04T16:47:19.966Z,14.90
2022-12-04T16:49:50.804Z,12.70
2022-12-04T16:52:18.060Z,14.80
2022-12-04T16:54:45.374Z,17.90
2022-12-04T16:57:12.205Z,13.10
2022-12-04T16:59:38.786Z,12.90
2022-12-04T17:02:14.049Z,15.50
2022-12-04T17:04:40.656Z,14.90
2022-12-04T17:07:07.221Z,14.20
2022-12-04T17:09:33.706Z,16.50
2022-12-04T17:12:00.175Z,13.60
2022-12-04T17:14:26.787Z,11.10
2022-12-04T17:16:54.704Z,15.20
2022-12-04T17:19:21.340Z,12.30
2022-12-04T17:21:48.009Z,14.40
2022-12-04T17:24:14.706Z,16.30
2022-12-04T17:26:41.206Z,16.50
2022-12-04T17:29:07.748Z,15.70
2022-12-04T17:31:34.445Z,14.60
2022-12-04T17:34:01.021Z,17.10
2022-12-04T17:36:27.665Z,13.80
2022-12-04T17:38:55.746Z,15.10
2022-12-04T17:41:22.393Z,14.70
2022-12-04T17:43:49.121Z,15.70
2022-12-04T17:46:20.994Z,14.90
2022-12-04T17:48:47.911Z,14.60
2022-12-04T17:51:21.974Z,15.60
2022-12-04T17:53:48.756Z,14.70
2022-12-04T17:56:18.565Z,13.80
2022-12-04T17:58:45.926Z,14.80
2022-12-04T18:01:15.651Z,14.50
2022-12-04T18:03:43.249Z,15.80
2022-12-04T18:06:24.846Z,14.40
2022-12-04T18:08:51.836Z,16.70
2022-12-04T18:11:19.951Z,13.70
2022-12-04T18:13:54.996Z,13.80
2022-12-04T18:16:21.573Z,16.80
2022-12-04T18:18:48.309Z,16.70
2022-12-04T18:21:14.984Z,13.50
2022-12-04T18:23:45.242Z,15.70
2022-12-04T18:26:15.653Z,12.70
2022-12-04T18:28:42.949Z,16.10
2022-12-04T18:31:10.187Z,13.00
2022-12-04T18:33:37.963Z,15.40
2022-12-04T18:36:10.168Z,15.80
2022-12-04T18:38:36.800Z,13.20
2022-12-04T18:41:05.079Z,14.20
2022-12-04T18:43:36.522Z,15.00
2022-12-04T18:46:07.853Z,16.50
2022-12-04T18:48:35.097Z,15.30
2022-12-04T18:51:01.975Z,13.90
2022-12-04T18:53:28.679Z,15.30
2022-12-04T18:55:55.224Z,14.70
2022-12-04T18:58:22.306Z,13.40
2022-12-04T19:00:51.025Z,15.10
2022-12-04T19:03:17.572Z,14.50
2022-12-04T19:05:49.014Z,12.40
2022-12-04T19:08:16.119Z,14.30
2022-12-04T19:10:43.149Z,16.50
2022-12-04T19:13:09.830Z,14.00
2022-12-04T19:15:42.609Z,14.60
2022-12-04T19:18:10.058Z,16.50
2022-12-04T19:20:40.983Z,12.70
2022-12-04T19:23:08.045Z,14.50
2022-12-04T19:25:34.736Z,17.50
2022-12-04T19:28:03.057Z,17.70
2022-12-04T19:30:29.908Z,14.40
2022-12-04T19:32:56.872Z,13.50
2022-12-04T19:35:23.607Z,14.20
2022-12-04T19:37:54.285Z,14.80
2022-12-04T19:40:20.863Z,14.30
2022-12-04T19:42:47.682Z,15.30
2022-12-04T19:45:14.566Z,15.80
2022-12-04T19:47:41.248Z,14.80
2022-12-04T19:50:08.625Z,15.30
2022-12-04T19:52:35.204Z,13.50
2022-12-04T19:55:02.007Z,14.40
2022-12-04T19:57:28.661Z,13.10
2022-12-04T19:59:56.436Z,15.40
2022-12-04T20:02:22.980Z,12.50
2022-12-04T20:04:49.984Z,15.00
2022-12-04T20:07:16.600Z,14.00
2022-12-04T20:09:52.093Z,13.90
2022-12-04T20:12:19.352Z,14.80
2022-12-04T20:14:45.989Z,15.80
2022-12-04T20:17:12.706Z,13.00
2022-12-04T20:19:39.218Z,14.10
2022-12-04T20:22:05.792Z,13.90
2022-12-04T20:24:32.462Z,13.90
2022-12-04T20:26:58.899Z,12.90
2022-12-04T20:29:25.355Z,12.30
2022-12-04T20:31:51.971Z,10.60
2022-12-04T20:34:18.692Z,12.30
2022-12-04T20:36:47.245Z,10.80
2022-12-04T20:39:14.466Z,11.60
2022-12-04T20:41:41.231Z,15.00
2022-12-04T20:44:14.133Z,14.60
2022-12-04T20:46:42.007Z,11.80
2022-12-04T20:49:20.718Z,14.20
2022-12-04T20:51:48.538Z,12.80
2022-12-04T20:54:18.004Z,13.90
2022-12-04T20:56:48.114Z,14.10
2022-12-04T20:59:17.349Z,14.60
2022-12-04T21:01:48.412Z,12.50
2022-12-04T21:04:17.245Z,14.10
2022-12-04T21:06:44.438Z,13.70
2022-12-04T21:09:17.462Z,13.40
2022-12-04T21:11:50.012Z,12.70
2022-12-04T21:14:50.603Z,10.20
2022-12-04T21:17:18.523Z,13.60
2022-12-04T21:19:46.224Z,13.40
2022-12-04T21:22:13.072Z,11.70
2022-12-04T21:24:41.587Z,12.50
2022-12-04T21:27:09.700Z,10.80
2022-12-04T21:29:37.227Z,14.80
2022-12-04T21:32:05.102Z,13.00
2022-12-04T21:34:31.970Z,11.90
2022-12-04T21:36:58.568Z,13.40
2022-12-04T21:39:25.176Z,10.80
2022-12-04T21:42:10.732Z,13.60
2022-12-04T21:44:37.590Z,13.80
2022-12-04T21:47:04.278Z,15.80
2022-12-04T21:49:30.702Z,14.20
2022-12-04T21:51:58.951Z,14.10
2022-12-04T21:54:27.194Z,12.40
2022-12-04T21:56:54.100Z,13.80
2022-12-04T21:59:20.672Z,14.60
2022-12-04T22:01:47.240Z,10.40
2022-12-04T22:04:13.819Z,13.10
2022-12-04T22:06:40.416Z,10.90
2022-12-04T22:09:08.768Z,13.90
2022-12-04T22:11:35.364Z,11.30
2022-12-04T22:14:02.109Z,12.80
2022-12-04T22:16:30.857Z,14.30
2022-12-04T22:18:58.414Z,11.20
2022-12-04T22:21:25.013Z,12.80
2022-12-04T22:23:59.458Z,11.70
2022-12-04T22:26:27.078Z,9.60
2022-12-04T22:28:54.109Z,12.20
2022-12-04T22:31:22.927Z,9.80
2022-12-04T22:33:51.428Z,12.00
2022-12-04T22:36:24.090Z,11.90
2022-12-04T22:39:09.821Z,12.60
2022-12-04T22:41:37.587Z,10.60
2022-12-04T22:44:04.320Z,12.10
2022-12-04T22:46:31.052Z,13.90
2022-12-04T22:48:58.837Z,10.70
2022-12-04T22:51:26.479Z,9.00
2022-12-04T22:53:56.808Z,10.80
2022-12-04T22:56:30.672Z,8.70
2022-12-04T22:58:58.162Z,10.20
2022-12-04T23:01:27.513Z,10.50
2022-12-04T23:03:54.138Z,11.10
2022-12-04T23:06:22.641Z,12.60
2022-12-04T23:08:53.707Z,11.50
2022-12-04T23:11:20.629Z,11.70
2022-12-04T23:13:59.570Z,10.20
2022-12-04T23:16:27.364Z,10.90
2022-12-04T23:18:53.935Z,10.70
2022-12-04T23:21:20.881Z,11.90
2022-12-04T23:23:48.065Z,8.50
2022-12-04T23:26:20.611Z,11.90
2022-12-04T23:28:47.142Z,13.60
2022-12-04T23:31:13.950Z,10.20
2022-12-04T23:33:41.053Z,11.30
2022-12-04T23:36:09.195Z,10.40
2022-12-04T23:38:36.791Z,11.40
2022-12-04T23:41:13.559Z,11.50
2022-12-04T23:43:40.538Z,7.50
2022-12-04T23:46:11.268Z,10.60
2022-12-04T23:48:39.714Z,11.50
2022-12-04T23:51:07.277Z,9.10
2022-12-04T23:53:34.069Z,11.80
2022-12-04T23:56:06.915Z,11.60
2022-12-04T23:58:34.195Z,11.80
